« 航空祭総合予行2 小松飛行場 2014/9/17 wed | トップページ | 福井空港スカイフェス2014 福井空港 2014/9/21 sun »

2014/09/20

航空祭前日1 小松飛行場 2014/9/19 fri

本日の小松航空祭は、史上最高の入場者とな・・ 空模様も晴れ傾向で、参加された皆さんは、さぞ楽しまれたことと思います。今更なのですが、悔しさまぎれに航空祭前日の模様をお届け。

RJNK 182200Z 14003KT 9999 FEW025 16/12 Q1015

20140919_rjnk_00fda

いつもの場所が航空祭の設営済みなのか、庫前で始業点検の消防隊。

20140919_rjnk_01f625864

朝一に移動してきたのは、本日展示される303記念塗装機

20140919_rjnk_02fstar

本日のスターは・・・ では、ありません。

RJNK 182300Z 13003KT 110V170 9999 FEW025 18/13 Q1015

20140919_rjnk_03f728960

306記念塗装機も展示場所に移動してきた。

20140919_rjnk_04bi265805

本日のスターは、8:34にターニングベース

20140919_rjnk_05bi265805

#1 76-5805 T-4 11SQ

20140919_rjnk_06bi465726

#2 46-5726 T-4 11SQ

20140919_rjnk_07bi465730

#3 46-5730 T-4 11SQ

20140919_rjnk_08bi465728

#5 46-5728 T-4 11SQ

20140919_rjnk_09abi465725

#6 46-5725 T-4 11SQ

20140919_rjnk_09bi

4号機は #4 66-5745 T-4 11SQ

RJNK 190000Z VRB02KT 9999 FEW025 SCT045 22/12 Q1016

20140919_rjnk_10xc2

9時過ぎには上空高くXC-2が試験空域へ進出していった

20140919_rjnk_11u823007

ナビでやってきたのか?

82-3007 U-125A CHITOSE-ARS A07

20140919_rjnk_12c781022

ブルーキーパーご一行様輸送のC1

78-1022 C-1 402SQ C22

RJNK 190100Z 35006KT 230V040 9999 FEW025 22/11 Q1015

20140919_rjnk_13jg74505

今回小松初展示のアパッチ

JG74505 AH-64D S A505

20140919_rjnk_14jg

珍しく随行は展示用にUH-1 JG41867 UH-1J S

20140919_rjnk_15m5080

5080 P-3C VP-3 SE80

20140919_rjnk_16xc2

チェイサーのT-4を従えて岐阜に帰って行くXC-2

20140919_rjnk_17jg41889

JG41889 UH-1J MH

何しに来たかは? 

20140919_rjnk_18ja893f

JA893F B412 石川県消防防災 

至近のキャンプに行ってしばらく帰ってこなかったので・・・・ 記録

RJNK 190200Z 34006KT 310V010 9999 FEW025 SCT250 21/10 Q1015

20140919_rjnk_19c130

上空を単機でC-130 小牧帰還かな

RJNK 190300Z 35007KT 310V010 9999 FEW025 SCT180 BKN250 22/11 Q1014

20140919_rjnk_20bi

お昼を周って、デッキを降りてブルーの観覧場所へ移動した。

20140919_rjnk_21f4

今度のインサイトは、岐阜へ帰るF-4

20140919_rjnk_22h184592

18-4592 UH-60J KOMATSU-ARS

どこかへお出かけ?

なかなか本日のスターにたどりつきませんが、次回に・・ その2へ

|

« 航空祭総合予行2 小松飛行場 2014/9/17 wed | トップページ | 福井空港スカイフェス2014 福井空港 2014/9/21 sun »

小松飛行場」カテゴリの記事

BI」カテゴリの記事

コメント

コメントを書く



(ウェブ上には掲載しません)


コメントは記事投稿者が公開するまで表示されません。



トラックバック


この記事へのトラックバック一覧です: 航空祭前日1 小松飛行場 2014/9/19 fri:

« 航空祭総合予行2 小松飛行場 2014/9/17 wed | トップページ | 福井空港スカイフェス2014 福井空港 2014/9/21 sun »